Time;durP1;ratioP1;P1;durP2;ratioP2;P2;SDS_P1;SDS_P2;PMS_P1;PMS_P2;Temp;Humidity;BMP_temperature;BMP_pressure;BME280_temperature;BME280_humidity;BME280_pressure;Samples;Min_cycle;Max_cycle;Signal;HPM_P1;HPM_P2
2022/11/05 00:09:28;;;;;;;43.15;25.88;;;;;;;10.02;100.00;98260.63;8434444;28;20047;-74
2022/11/05 00:10:43;;;;;;;243.15;40.75;;;;;;;9.95;100.00;98290.00;8448915;28;20044;-73
2022/11/05 00:19:07;;;;;;;;;;;;;;;9.93;100.00;98311.13;8433519;28;20044;-73
2022/11/05 00:27:28;;;;;;;239.18;44.25;;;;;;;9.89;100.00;98329.03;8376388;28;20097;-73
2022/11/05 00:31:30;;;;;;;233.23;43.03;;;;;;;9.79;100.00;98342.88;8447573;28;20048;-74
2022/11/05 00:35:31;;;;;;;284.20;47.78;;;;;;;9.82;100.00;98350.34;8440597;28;20121;-74
2022/11/05 00:39:32;;;;;;;244.35;44.35;;;;;;;9.80;100.00;98345.25;8447195;28;20482;-73
2022/11/05 00:56:32;;;;;;;222.50;41.65;;;;;;;9.70;100.00;98359.88;8440931;28;20052;-73
2022/11/05 01:00:35;;;;;;;242.80;40.25;;;;;;;9.65;100.00;98362.75;8435833;28;20470;-73
2022/11/05 01:04:36;;;;;;;177.60;40.80;;;;;;;9.62;100.00;98371.44;8434378;28;20052;-74
2022/11/05 01:08:38;;;;;;;180.45;40.30;;;;;;;9.57;100.00;98377.00;8437332;28;20048;-74
2022/11/05 01:12:39;;;;;;;131.35;41.80;;;;;;;9.59;100.00;98385.59;8444552;28;20405;-73
2022/11/05 01:16:40;;;;;;;99.00;45.00;;;;;;;9.52;100.00;98396.03;8447500;28;20139;-73
2022/11/05 01:20:41;;;;;;;100.00;43.97;;;;;;;9.55;100.00;98400.81;8446750;28;20044;-74
2022/11/05 01:24:42;;;;;;;105.93;43.95;;;;;;;9.56;100.00;98413.19;8437389;28;20048;-73
2022/11/05 01:28:43;;;;;;;105.57;41.95;;;;;;;9.56;100.00;98417.78;8444431;28;20508;-73
2022/11/05 01:32:44;;;;;;;90.05;42.20;;;;;;;9.59;100.00;98417.94;8443061;28;20040;-73
2022/11/05 01:36:45;;;;;;;70.55;32.83;;;;;;;9.55;100.00;98422.38;8442422;28;20050;-73
2022/11/05 01:40:46;;;;;;;61.10;31.35;;;;;;;9.55;100.00;98417.00;8399926;28;20164;-72
2022/11/05 01:44:59;;;;;;;60.45;30.65;;;;;;;9.48;100.00;98422.06;8443628;28;20055;-73
2022/11/05 01:49:32;;;;;;;44.60;25.73;;;;;;;9.44;100.00;98437.28;8446194;28;20482;-73
2022/11/05 01:54:01;;;;;;;50.75;28.35;;;;;;;9.42;100.00;98439.50;8449414;28;20072;-73
2022/11/05 01:58:06;;;;;;;41.13;25.17;;;;;;;9.47;100.00;98439.34;8318417;28;20064;-73
2022/11/05 02:02:08;;;;;;;41.65;25.05;;;;;;;9.46;100.00;98435.06;8305026;28;20050;-72
2022/11/05 02:06:10;;;;;;;53.42;27.75;;;;;;;9.40;100.00;98436.34;8340491;28;20053;-73
2022/11/05 02:10:13;;;;;;;48.75;27.77;;;;;;;9.29;100.00;98441.25;8341193;28;20057;-74
2022/11/05 02:14:13;;;;;;;47.58;25.70;;;;;;;9.30;100.00;98442.03;8339371;28;20057;-73
2022/11/05 02:18:23;;;;;;;39.67;22.90;;;;;;;9.29;100.00;98445.84;8308736;28;20048;-73
2022/11/05 02:22:51;;;;;;;37.47;21.85;;;;;;;9.27;100.00;98432.69;8333611;28;20477;-75
2022/11/05 02:26:58;;;;;;;38.08;21.88;;;;;;;9.29;100.00;98459.31;8292838;28;20049;-73
2022/11/05 02:31:21;;;;;;;28.10;17.50;;;;;;;9.24;100.00;98460.25;8308552;28;20052;-73
2022/11/05 02:35:39;;;;;;;29.80;17.35;;;;;;;9.22;100.00;98467.84;8379803;28;20044;-73
2022/11/05 02:39:52;;;;;;;30.20;16.67;;;;;;;9.25;100.00;98482.59;8440108;28;20048;-73
2022/11/05 02:44:38;;;;;;;26.70;15.80;;;;;;;9.21;100.00;98478.94;8418205;28;20044;-73
2022/11/05 02:48:58;;;;;;;20.70;13.15;;;;;;;9.25;100.00;98496.84;8317920;28;20062;-73
2022/11/05 02:53:21;;;;;;;16.70;11.05;;;;;;;9.28;100.00;98503.53;8335002;28;20041;-73
2022/11/05 02:57:21;;;;;;;15.10;10.23;;;;;;;9.29;100.00;98521.28;8322042;28;20058;-73
2022/11/05 03:01:22;;;;;;;18.50;9.55;;;;;;;9.26;100.00;98521.91;8301277;28;20050;-73
2022/11/05 03:05:28;;;;;;;11.30;6.50;;;;;;;9.20;100.00;98531.25;8302253;28;20056;-74
2022/11/05 03:09:35;;;;;;;6.15;4.25;;;;;;;9.21;100.00;98535.50;8276987;28;20188;-73
2022/11/05 03:14:22;;;;;;;3.97;3.08;;;;;;;9.16;100.00;98538.34;8277102;28;20064;-72
2022/11/05 03:18:54;;;;;;;2.70;2.35;;;;;;;9.18;100.00;98557.69;8112558;29;20059;-72
2022/11/05 03:23:12;;;;;;;2.60;2.03;;;;;;;9.14;100.00;98556.75;8131689;29;20047;-73
2022/11/05 03:27:19;;;;;;;2.67;2.00;;;;;;;9.15;100.00;98563.69;8188759;29;20480;-73
2022/11/05 03:31:21;;;;;;;2.95;1.67;;;;;;;9.17;100.00;98566.88;8185378;29;20148;-72
2022/11/05 03:35:29;;;;;;;1.55;1.45;;;;;;;9.14;100.00;98583.69;8178270;29;20052;-73
2022/11/05 03:39:37;;;;;;;2.30;1.90;;;;;;;9.10;100.00;98594.28;8183102;29;20151;-72
2022/11/05 03:43:39;;;;;;;;;;;;;;;9.07;100.00;98602.19;8189866;29;20054;-73
2022/11/05 03:47:42;;;;;;;1.58;1.40;;;;;;;9.10;100.00;98610.44;8176008;28;19941;-72
2022/11/05 03:52:18;;;;;;;3.20;1.50;;;;;;;9.02;100.00;98618.47;8192511;29;20051;-73
2022/11/05 03:56:38;;;;;;;3.55;1.45;;;;;;;9.05;100.00;98623.25;8407756;28;20062;-73
2022/11/05 04:00:40;;;;;;;2.38;1.38;;;;;;;9.02;100.00;98634.66;8411503;28;20393;-73
2022/11/05 04:04:41;;;;;;;1.38;1.27;;;;;;;9.00;100.00;98647.63;8413241;28;20049;-74
2022/11/05 04:17:21;;;;;;;2.00;1.50;;;;;;;8.98;100.00;98657.91;8404602;28;20521;-72
2022/11/05 04:25:42;;;;;;;1.92;1.60;;;;;;;8.92;100.00;98691.47;8418109;28;20371;-73
2022/11/05 04:34:02;;;;;;;2.00;1.80;;;;;;;8.87;100.00;98687.81;8410973;28;20048;-72
2022/11/05 04:38:05;;;;;;;2.63;1.73;;;;;;;8.83;100.00;98702.97;8419345;28;20131;-74
2022/11/05 04:42:06;;;;;;;1.98;1.73;;;;;;;8.83;100.00;98702.97;8414561;28;20042;-72
2022/11/05 04:46:07;;;;;;;3.58;1.73;;;;;;;8.83;100.00;98708.34;8414071;28;20044;-73
2022/11/05 04:50:10;;;;;;;3.42;1.85;;;;;;;8.83;100.00;98711.03;8432874;28;20047;-74
2022/11/05 04:54:11;;;;;;;2.45;1.90;;;;;;;8.84;100.00;98709.94;8459036;28;20055;-74
2022/11/05 04:58:12;;;;;;;4.93;2.10;;;;;;;8.87;100.00;98703.97;8449225;28;20044;-72
2022/11/05 05:02:13;;;;;;;3.67;1.42;;;;;;;8.83;100.00;98713.72;8444819;28;20452;-73
2022/11/05 05:06:15;;;;;;;2.08;1.67;;;;;;;8.83;100.00;98719.13;8427009;28;20064;-72
2022/11/05 05:10:16;;;;;;;2.00;1.80;;;;;;;8.80;100.00;98724.31;8407699;28;20072;-73
2022/11/05 05:14:17;;;;;;;1.80;1.60;;;;;;;8.76;100.00;98718.75;8424985;28;20036;-73
2022/11/05 05:18:18;;;;;;;2.40;1.70;;;;;;;8.76;100.00;98724.16;8412141;28;20070;-73
2022/11/05 05:22:19;;;;;;;4.22;2.05;;;;;;;8.77;100.00;98739.22;8422118;28;20044;-73
2022/11/05 05:26:20;;;;;;;6.32;2.55;;;;;;;8.75;100.00;98749.47;8411714;28;20143;-72
2022/11/05 05:30:21;;;;;;;2.90;2.30;;;;;;;8.73;100.00;98751.66;8400122;28;20084;-74
2022/11/05 05:34:22;;;;;;;3.10;2.60;;;;;;;8.74;100.00;98742.50;8406195;28;20049;-72
2022/11/05 05:38:24;;;;;;;3.20;2.72;;;;;;;8.70;100.00;98736.13;8415811;28;20043;-74
2022/11/05 05:42:24;;;;;;;6.13;2.97;;;;;;;8.70;100.00;98751.50;8414376;28;20521;-73
2022/11/05 05:46:26;;;;;;;4.80;3.63;;;;;;;8.70;100.00;98741.53;8405508;28;20402;-72
2022/11/05 05:50:26;;;;;;;5.40;3.80;;;;;;;8.69;100.00;98745.31;8418846;28;20048;-73
2022/11/05 05:54:28;;;;;;;5.25;3.58;;;;;;;8.69;100.00;98750.69;8406538;28;20040;-73
2022/11/05 05:58:34;;;;;;;10.05;4.82;;;;;;;8.67;100.00;98769.03;8386130;28;20053;-72
2022/11/05 06:02:35;;;;;;;6.00;4.78;;;;;;;8.68;100.00;98776.00;8406455;28;20036;-73
2022/11/05 06:06:36;;;;;;;8.43;5.15;;;;;;;8.71;100.00;98791.56;8406546;28;20050;-72
2022/11/05 06:10:39;;;;;;;7.68;5.40;;;;;;;8.70;100.00;98806.13;8412427;28;20036;-72
2022/11/05 06:14:39;;;;;;;10.68;5.40;;;;;;;8.70;100.00;98806.13;8398391;28;20093;-73
2022/11/05 06:18:41;;;;;;;7.80;5.47;;;;;;;8.69;100.00;98820.69;8414903;28;20070;-72
2022/11/05 06:22:42;;;;;;;9.75;5.38;;;;;;;8.70;100.00;98826.88;8420993;28;20052;-73
2022/11/05 06:26:43;;;;;;;7.05;5.22;;;;;;;8.74;100.00;98844.81;8413216;28;20151;-73
2022/11/05 06:30:50;;;;;;;8.35;5.13;;;;;;;8.69;100.00;98844.91;8390851;28;20051;-74
2022/11/05 06:34:51;;;;;;;5.75;4.80;;;;;;;8.71;100.00;98856.19;8420475;28;20048;-73
2022/11/05 06:38:52;;;;;;;6.10;4.95;;;;;;;8.71;100.00;98866.97;8407838;28;20101;-72
2022/11/05 06:42:54;;;;;;;9.70;4.70;;;;;;;8.73;100.00;98875.50;8420073;28;20044;-73
2022/11/05 06:46:55;;;;;;;8.45;4.30;;;;;;;8.71;100.00;98877.72;8417993;28;20048;-72
2022/11/05 06:50:56;;;;;;;8.18;4.43;;;;;;;8.70;100.00;98886.91;8417242;28;20048;-72
2022/11/05 06:54:57;;;;;;;8.57;4.13;;;;;;;8.75;100.00;98878.72;8425445;28;20427;-72
2022/11/05 06:59:01;;;;;;;6.90;4.47;;;;;;;8.71;100.00;98893.88;8404790;28;20044;-73
2022/11/05 07:03:04;;;;;;;5.38;4.00;;;;;;;8.73;100.00;98902.44;8414290;28;20090;-71
2022/11/05 07:07:05;;;;;;;4.80;4.30;;;;;;;8.71;100.00;98915.41;8416231;28;20051;-72
2022/11/05 07:11:06;;;;;;;8.32;4.70;;;;;;;8.71;100.00;98920.81;8415324;28;20049;-71
2022/11/05 07:15:08;;;;;;;6.03;4.13;;;;;;;8.72;100.00;98927.78;8406164;28;20081;-72
2022/11/05 07:19:09;;;;;;;5.85;4.45;;;;;;;8.73;100.00;98934.75;8421783;28;20513;-72
2022/11/05 07:23:12;;;;;;;5.00;4.18;;;;;;;8.77;100.00;98933.06;8407377;28;20058;-72
2022/11/05 07:27:13;;;;;;;5.97;4.07;;;;;;;8.78;100.00;98931.94;8409408;28;20050;-72
2022/11/05 07:31:14;;;;;;;5.35;3.83;;;;;;;8.80;100.00;98940.53;8423312;28;20052;-72
2022/11/05 07:35:15;;;;;;;4.00;3.53;;;;;;;8.81;100.00;98952.91;8395264;28;20135;-72
2022/11/05 07:39:18;;;;;;;8.50;3.40;;;;;;;8.75;100.00;98953.28;8416157;28;20051;-73
2022/11/05 07:43:21;;;;;;;8.60;3.42;;;;;;;8.78;100.00;98969.63;8363242;28;20048;-74
2022/11/05 07:47:22;;;;;;;5.10;3.55;;;;;;;8.74;100.00;98968.66;8412457;28;20051;-73
2022/11/05 07:51:23;;;;;;;5.78;3.58;;;;;;;8.76;100.00;98992.59;8416187;28;20048;-73
2022/11/05 07:55:24;;;;;;;4.63;3.70;;;;;;;8.71;100.00;98990.81;8408300;28;20048;-73
2022/11/05 07:59:25;;;;;;;5.47;3.58;;;;;;;8.77;100.00;99011.16;8430549;28;20052;-73
2022/11/05 08:03:26;;;;;;;7.38;3.83;;;;;;;8.82;100.00;99013.75;8394605;28;20051;-73
2022/11/05 08:07:27;;;;;;;4.85;3.75;;;;;;;8.83;100.00;99014.50;8408544;28;20120;-72
2022/11/05 08:11:28;;;;;;;6.78;3.92;;;;;;;8.86;100.00;99020.13;8431418;28;20056;-73
2022/11/05 08:15:29;;;;;;;12.48;6.32;;;;;;;8.89;100.00;99014.13;8431644;28;20052;-75
2022/11/05 08:19:30;;;;;;;5.78;4.40;;;;;;;8.98;100.00;99026.91;8435045;28;20070;-72
2022/11/05 08:23:34;;;;;;;8.93;5.18;;;;;;;9.02;100.00;99028.69;8440480;28;20058;-73
2022/11/05 08:27:36;;;;;;;7.80;3.88;;;;;;;9.09;100.00;99022.91;8430002;28;20579;-73
2022/11/05 08:31:37;;;;;;;7.25;3.92;;;;;;;9.16;100.00;99024.09;8429610;28;20047;-72
2022/11/05 08:35:39;;;;;;;5.22;3.80;;;;;;;9.25;100.00;99026.88;8421572;28;20052;-72
2022/11/05 08:39:43;;;;;;;7.82;4.22;;;;;;;9.25;100.00;99033.03;8430524;28;20155;-73
2022/11/05 08:43:44;;;;;;;9.40;4.22;;;;;;;9.32;100.00;99046.13;8429467;28;20044;-72
2022/11/05 08:47:45;;;;;;;7.97;3.85;;;;;;;9.31;100.00;99053.41;8435379;28;20059;-73
2022/11/05 08:51:46;;;;;;;5.80;3.72;;;;;;;9.35;100.00;99053.63;8441294;28;20528;-73
2022/11/05 08:55:49;;;;;;;5.18;3.58;;;;;;;9.35;100.00;99069.00;8438498;28;20071;-73
2022/11/05 08:59:51;;;;;;;7.25;3.90;;;;;;;9.33;100.00;99080.06;8464447;28;20505;-73
2022/11/05 09:03:52;;;;;;;7.13;3.72;;;;;;;9.35;100.00;99096.75;8442586;28;20132;-75
2022/11/05 09:07:53;;;;;;;8.15;3.17;;;;;;;9.33;100.00;99093.53;8439702;28;20047;-72
2022/11/05 09:11:53;;;;;;;10.18;3.72;;;;;;;9.43;100.00;99104.09;8442393;28;20044;-73
2022/11/05 09:15:57;;;;;;;7.10;3.60;;;;;;;9.46;100.00;99103.53;8464553;28;20056;-71
2022/11/05 09:19:58;;;;;;;8.02;3.35;;;;;;;9.57;100.00;99115.66;8385211;28;20036;-73
2022/11/05 09:23:59;;;;;;;10.30;3.08;;;;;;;9.59;100.00;99124.25;8440606;28;20055;-73
2022/11/05 09:28:07;;;;;;;5.70;3.30;;;;;;;9.60;100.00;99131.25;8450461;28;20078;-72
2022/11/05 09:32:08;;;;;;;8.13;3.35;;;;;;;9.60;100.00;99125.88;8441606;28;20052;-73
2022/11/05 09:36:09;;;;;;;7.22;3.30;;;;;;;9.65;100.00;99128.47;8450309;28;20048;-72
2022/11/05 09:40:14;;;;;;;6.68;3.00;;;;;;;9.75;100.00;99139.03;8459205;28;20417;-72
2022/11/05 09:44:19;;;;;;;11.77;2.67;;;;;;;9.81;100.00;99153.22;8444280;28;20047;-73
2022/11/05 09:48:27;;;;;;;13.63;3.65;;;;;;;9.80;100.00;99150.78;8440015;28;20044;-73
2022/11/05 09:52:29;;;;;;;8.88;3.00;;;;;;;9.83;100.00;99150.22;8441788;28;20089;-73
2022/11/05 09:56:33;;;;;;;7.28;3.08;;;;;;;9.74;100.00;99164.41;8451518;28;20085;-73
2022/11/05 10:00:34;;;;;;;16.23;3.58;;;;;;;9.77;100.00;99156.81;8449266;28;20077;-72
2022/11/05 10:04:35;;;;;;;7.55;2.88;;;;;;;9.80;100.00;99156.19;8434842;28;20040;-73
2022/11/05 10:08:42;;;;;;;8.52;2.97;;;;;;;9.78;100.00;99158.41;8424729;28;20047;-72
2022/11/05 10:12:50;;;;;;;12.38;3.20;;;;;;;9.80;100.00;99161.59;8449212;28;20386;-72
2022/11/05 10:16:57;;;;;;;10.40;3.63;;;;;;;9.84;100.00;99157.19;8463326;28;20052;-73
2022/11/05 10:20:59;;;;;;;13.48;3.40;;;;;;;9.89;100.00;99154.38;8450330;28;20504;-74
2022/11/05 10:25:00;;;;;;;9.73;3.22;;;;;;;9.87;100.00;99172.78;8463693;28;20044;-73
2022/11/05 10:29:01;;;;;;;15.38;2.92;;;;;;;9.88;100.00;99158.19;8451333;28;20047;-73
2022/11/05 10:33:04;;;;;;;7.75;3.08;;;;;;;9.86;100.00;99182.75;8450127;28;20074;-74
2022/11/05 10:37:05;;;;;;;12.95;3.10;;;;;;;9.84;100.00;99187.66;8440710;28;20044;-73
2022/11/05 10:42:02;;;;;;;11.50;3.20;;;;;;;9.83;100.00;99183.38;8446089;28;20055;-72
2022/11/05 10:46:21;;;;;;;9.30;3.40;;;;;;;9.84;100.00;99184.16;8325767;28;20041;-72
2022/11/05 10:50:23;;;;;;;;;;;;;;;9.97;100.00;99183.34;8322858;28;20057;-74
2022/11/05 10:54:29;;;;;;;11.15;5.10;;;;;;;10.14;100.00;99188.91;8316590;28;19986;-72
2022/11/05 10:58:34;;;;;;;19.75;7.78;;;;;;;10.23;100.00;99187.13;8333189;28;20127;-73
2022/11/05 11:02:35;;;;;;;8.73;4.60;;;;;;;10.25;100.00;99184.94;8335145;28;20052;-71
2022/11/05 11:06:39;;;;;;;13.32;4.72;;;;;;;10.32;100.00;99198.78;8345966;28;20053;-72
2022/11/05 11:10:48;;;;;;;9.10;4.03;;;;;;;10.27;100.00;99198.91;8329110;28;20053;-75
2022/11/05 11:15:26;;;;;;;10.65;4.40;;;;;;;10.28;100.00;99187.00;8307154;28;20555;-72
2022/11/05 11:19:34;;;;;;;7.95;3.83;;;;;;;10.17;100.00;99193.72;8235855;28;20043;-74
2022/11/05 11:23:37;;;;;;;14.00;7.60;;;;;;;10.11;100.00;99205.69;8324306;28;20057;-74
2022/11/05 11:27:38;;;;;;;16.88;7.82;;;;;;;10.17;100.00;99204.53;8332978;28;20065;-73
2022/11/05 11:31:40;;;;;;;18.98;9.18;;;;;;;10.30;100.00;99209.09;8333412;28;20052;-73
2022/11/05 11:35:45;;;;;;;27.13;13.82;;;;;;;10.40;100.00;99211.56;8263182;28;20046;-73
2022/11/05 11:40:11;;;;;;;29.02;10.35;;;;;;;10.51;100.00;99226.44;8331103;28;20049;-73
2022/11/05 11:44:20;;;;;;;18.38;7.40;;;;;;;10.51;100.00;99223.75;8324567;28;20045;-73
2022/11/05 11:48:33;;;;;;;20.33;6.25;;;;;;;10.50;100.00;99230.25;8328749;28;20048;-72
2022/11/05 11:52:36;;;;;;;18.25;4.55;;;;;;;10.49;100.00;99235.94;8373190;28;20145;-73
2022/11/05 11:56:45;;;;;;;16.52;4.82;;;;;;;10.41;99.73;99233.97;8438028;28;20048;-73
2022/11/05 12:00:52;;;;;;;17.00;4.07;;;;;;;10.44;100.00;99236.84;8449733;28;20051;-73
2022/11/05 12:05:22;;;;;;;13.95;3.97;;;;;;;10.42;99.44;99233.66;8450752;28;20040;-72
2022/11/05 12:09:41;;;;;;;13.68;3.72;;;;;;;10.49;99.35;99239.44;8285216;28;20447;-72
2022/11/05 12:13:55;;;;;;;;;;;;;;;10.56;99.21;99256.03;8343891;28;20131;-73
2022/11/05 12:18:05;;;;;;;11.50;3.95;;;;;;;10.58;98.64;99248.41;8331585;28;20286;-73
2022/11/05 12:22:31;;;;;;;17.92;3.83;;;;;;;10.66;97.82;99248.78;8285253;28;20049;-72
2022/11/05 12:26:41;;;;;;;13.30;4.38;;;;;;;10.75;97.75;99252.34;8332486;28;20511;-74
2022/11/05 12:30:59;;;;;;;11.07;3.40;;;;;;;10.77;96.50;99252.84;8341583;28;20057;-72
2022/11/05 12:35:19;;;;;;;8.67;4.20;;;;;;;10.74;96.79;99272.34;8333091;28;20040;-73
2022/11/05 12:39:40;;;;;;;320.75;129.15;;;;;;;10.71;96.50;99278.38;8338316;28;20207;-72
2022/11/05 12:44:16;;;;;;;88.03;41.63;;;;;;;10.71;97.04;99289.19;8332280;28;20044;-73
2022/11/05 12:48:35;;;;;;;13.23;6.35;;;;;;;10.64;97.31;99278.00;8447208;28;20383;-73
2022/11/05 12:53:21;;;;;;;13.85;4.35;;;;;;;10.62;97.13;99280.22;8451031;28;20052;-73
2022/11/05 12:57:22;;;;;;;14.05;3.13;;;;;;;10.52;95.31;99276.63;8311313;28;20474;-73
2022/11/05 13:01:37;;;;;;;15.63;3.22;;;;;;;10.56;95.49;99283.03;8297878;28;20104;-73
2022/11/05 13:06:09;;;;;;;14.50;4.43;;;;;;;10.69;94.82;99286.78;8218747;28;20050;-73
2022/11/05 13:10:23;;;;;;;13.88;4.35;;;;;;;10.77;94.71;99277.16;8118350;29;20063;-73
2022/11/05 13:14:37;;;;;;;14.88;4.30;;;;;;;10.85;94.22;99284.53;8131290;29;20056;-73
2022/11/05 13:18:45;;;;;;;18.73;4.15;;;;;;;10.84;92.81;99285.66;8133703;29;20044;-73
2022/11/05 13:22:51;;;;;;;21.38;4.97;;;;;;;10.73;93.48;99292.38;8134187;29;20052;-73
2022/11/05 13:27:00;;;;;;;20.23;6.88;;;;;;;10.68;93.01;99295.22;8166212;28;20058;-73
2022/11/05 13:31:04;;;;;;;24.13;6.18;;;;;;;10.76;92.95;99294.47;8211873;28;20047;-74
2022/11/05 13:35:13;;;;;;;22.08;5.63;;;;;;;10.79;92.69;99296.53;8258632;28;20045;-72
2022/11/05 13:39:18;;;;;;;;;;;;;;;10.83;93.20;99308.38;8324106;28;20092;-74
2022/11/05 13:43:22;;;;;;;18.67;4.95;;;;;;;10.86;91.37;99313.16;8323532;28;20549;-74
2022/11/05 13:47:38;;;;;;;14.63;5.35;;;;;;;11.00;89.58;99319.28;8369181;28;20079;-72
2022/11/05 13:51:46;;;;;;;22.10;5.25;;;;;;;11.02;87.66;99333.31;8446464;28;20044;-73
2022/11/05 13:56:10;;;;;;;17.13;4.22;;;;;;;10.78;87.60;99338.19;8456493;28;20122;-73
2022/11/05 14:00:18;;;;;;;15.68;3.88;;;;;;;10.74;88.43;99343.38;8428281;28;20142;-73
2022/11/05 14:04:37;;;;;;;16.10;3.83;;;;;;;10.61;88.64;99346.13;8442538;28;20051;-72
2022/11/05 14:08:45;;;;;;;13.88;4.20;;;;;;;10.57;89.29;99349.41;8440754;28;20056;-73
2022/11/05 14:12:50;;;;;;;20.02;4.55;;;;;;;10.45;89.14;99341.06;8460547;28;20039;-72
2022/11/05 14:17:08;;;;;;;18.23;6.78;;;;;;;10.37;89.88;99344.44;8455719;28;20047;-73
2022/11/05 14:21:30;;;;;;;19.63;4.65;;;;;;;10.29;90.89;99358.66;8443564;28;20035;-73
2022/11/05 14:25:34;;;;;;;14.70;4.28;;;;;;;10.19;91.30;99366.97;8438013;28;20052;-72
2022/11/05 14:29:42;;;;;;;17.45;4.63;;;;;;;10.08;91.54;99373.63;8431723;28;20047;-73
2022/11/05 14:34:03;;;;;;;17.80;5.13;;;;;;;9.97;92.10;99372.19;8441243;28;20054;-72
2022/11/05 14:38:05;;;;;;;16.88;4.53;;;;;;;9.91;92.42;99378.78;8429224;28;20486;-73
2022/11/05 14:42:24;;;;;;;16.00;4.63;;;;;;;9.82;93.24;99384.06;8441427;28;20091;-72
2022/11/05 14:46:42;;;;;;;26.15;6.75;;;;;;;9.75;93.66;99381.75;8413016;28;20051;-72
2022/11/05 14:50:43;;;;;;;22.73;8.10;;;;;;;9.77;94.17;99383.34;8397345;28;20055;-75
2022/11/05 14:54:50;;;;;;;20.42;8.80;;;;;;;9.71;94.28;99396.94;8406394;28;20304;-73
2022/11/05 14:59:23;;;;;;;28.70;9.82;;;;;;;9.63;94.94;99394.91;8412891;28;20044;-73
2022/11/05 15:03:39;;;;;;;16.30;5.65;;;;;;;9.51;95.36;99405.38;8421554;28;20395;-72
2022/11/05 15:07:43;;;;;;;24.38;5.20;;;;;;;9.35;95.87;99409.38;8421536;28;20058;-73
2022/11/05 15:11:51;;;;;;;14.93;4.90;;;;;;;9.21;96.54;99408.50;8392356;28;20478;-72
2022/11/05 15:15:52;;;;;;;12.35;5.50;;;;;;;9.08;97.15;99414.63;8405442;28;20057;-72
2022/11/05 15:19:53;;;;;;;16.75;6.05;;;;;;;8.97;97.34;99418.56;8395316;28;20096;-72
2022/11/05 15:23:55;;;;;;;15.02;5.85;;;;;;;8.81;97.84;99426.84;8438345;28;20048;-73
2022/11/05 15:28:05;;;;;;;22.85;6.90;;;;;;;8.69;98.42;99429.16;8424484;28;20510;-72
2022/11/05 15:32:15;;;;;;;15.80;6.78;;;;;;;8.58;98.36;99421.47;8444811;28;20065;-73
2022/11/05 15:36:30;;;;;;;14.38;5.10;;;;;;;8.49;98.67;99424.00;8434379;28;20048;-73
2022/11/05 15:40:32;;;;;;;14.98;4.57;;;;;;;8.40;98.91;99425.72;8445812;28;20431;-73
2022/11/05 15:44:38;;;;;;;13.88;4.25;;;;;;;8.28;99.14;99433.38;8446264;28;20051;-73
2022/11/05 15:48:39;;;;;;;12.93;4.43;;;;;;;8.20;98.98;99436.66;8423976;28;20058;-73
2022/11/05 15:52:48;;;;;;;21.52;5.80;;;;;;;8.06;99.15;99442.72;8438137;28;20123;-74
2022/11/05 15:56:52;;;;;;;16.42;5.18;;;;;;;7.98;99.16;99446.00;8420397;28;20044;-73
2022/11/05 16:00:53;;;;;;;12.32;5.15;;;;;;;7.91;99.35;99450.13;8415682;28;20056;-73
2022/11/05 16:04:55;;;;;;;13.93;6.55;;;;;;;7.84;99.48;99455.03;8430388;28;20055;-73
2022/11/05 16:08:55;;;;;;;14.55;5.15;;;;;;;7.75;99.23;99457.53;8402535;28;20423;-74
2022/11/05 16:13:17;;;;;;;14.73;5.03;;;;;;;7.67;99.31;99466.19;8391833;28;20049;-73
2022/11/05 16:17:20;;;;;;;21.65;6.53;;;;;;;7.59;99.48;99469.47;8396854;28;20532;-74
2022/11/05 16:21:22;;;;;;;13.10;5.05;;;;;;;7.55;99.84;99468.44;8385099;28;20106;-73
2022/11/05 16:25:36;;;;;;;17.65;5.72;;;;;;;7.50;99.54;99465.78;8392454;28;20070;-73
2022/11/05 16:29:47;;;;;;;14.85;5.90;;;;;;;7.44;99.39;99485.72;8402279;28;20048;-72
2022/11/05 16:33:48;;;;;;;24.92;8.40;;;;;;;7.37;99.55;99477.16;8392478;28;20048;-73
2022/11/05 16:37:50;;;;;;;25.48;8.02;;;;;;;7.31;99.59;99481.75;8391984;28;20048;-72
2022/11/05 16:41:54;;;;;;;18.35;7.30;;;;;;;7.25;99.49;99487.41;8398394;28;20071;-73
2022/11/05 16:45:59;;;;;;;21.92;7.60;;;;;;;7.17;99.64;99488.81;8415457;28;20073;-73
2022/11/05 16:50:03;;;;;;;22.48;6.80;;;;;;;7.12;99.74;99495.03;8436862;28;20055;-73
2022/11/05 16:54:04;;;;;;;22.35;7.00;;;;;;;7.06;99.80;99492.63;8392203;28;20464;-73
2022/11/05 16:58:09;;;;;;;18.40;6.90;;;;;;;6.99;99.83;99498.31;8435226;28;20055;-72
2022/11/05 17:02:13;;;;;;;14.50;6.13;;;;;;;6.97;99.63;99500.47;8427656;28;20059;-72
2022/11/05 17:06:15;;;;;;;15.75;5.63;;;;;;;6.92;99.47;99499.69;8430302;28;20109;-72
2022/11/05 17:10:17;;;;;;;13.00;5.68;;;;;;;6.89;99.61;99503.72;8430519;28;20102;-74
2022/11/05 17:14:17;;;;;;;17.20;5.63;;;;;;;6.86;99.19;99508.84;8429478;28;20058;-72
2022/11/05 17:18:19;;;;;;;11.52;5.03;;;;;;;6.82;99.32;99507.78;8428460;28;20046;-74
2022/11/05 17:22:20;;;;;;;14.55;5.45;;;;;;;6.77;99.19;99511.25;8429035;28;20039;-72
2022/11/05 17:26:21;;;;;;;10.73;5.30;;;;;;;6.74;99.18;99522.56;8411167;28;20447;-72
2022/11/05 17:30:22;;;;;;;21.42;7.07;;;;;;;6.71;99.21;99533.84;8432368;28;20052;-72
2022/11/05 17:34:23;;;;;;;14.98;6.53;;;;;;;6.67;99.19;99530.09;8429745;28;20044;-72
2022/11/05 17:38:25;;;;;;;15.00;6.30;;;;;;;6.62;99.03;99535.47;8434379;28;20079;-72
2022/11/05 17:42:26;;;;;;;17.20;8.23;;;;;;;6.57;99.12;99530.13;8429024;28;20048;-73
2022/11/05 17:46:34;;;;;;;22.38;9.48;;;;;;;6.51;98.97;99528.50;8428806;28;20438;-73
2022/11/05 17:50:43;;;;;;;25.33;12.85;;;;;;;6.47;99.07;99538.19;8447448;28;20070;-72
2022/11/05 17:54:44;;;;;;;24.63;12.83;;;;;;;6.44;99.11;99538.75;8408428;28;20791;-72
2022/11/05 17:58:45;;;;;;;30.23;12.32;;;;;;;6.40;98.90;99543.03;8455986;28;20112;-73
2022/11/05 18:02:48;;;;;;;26.60;13.07;;;;;;;6.35;99.15;99558.06;8423668;28;20055;-72
2022/11/05 18:06:49;;;;;;;40.30;15.93;;;;;;;6.33;99.23;99549.50;8427119;28;20048;-73
2022/11/05 18:10:52;;;;;;;42.20;18.48;;;;;;;6.30;99.19;99555.38;8416591;28;20494;-71
2022/11/05 18:14:54;;;;;;;61.83;25.55;;;;;;;6.27;98.96;99555.94;8414719;28;20064;-72
2022/11/05 18:18:59;;;;;;;60.80;23.83;;;;;;;6.22;99.21;99558.63;8379178;28;20041;-73
2022/11/05 18:23:00;;;;;;;59.95;24.13;;;;;;;6.21;99.32;99567.72;8415593;28;20490;-72
2022/11/05 18:27:02;;;;;;;62.30;23.60;;;;;;;6.19;99.36;99569.84;8413774;28;20083;-72
2022/11/05 18:31:03;;;;;;;51.00;21.77;;;;;;;6.16;99.40;99570.41;8404581;28;20091;-72
2022/11/05 18:35:06;;;;;;;44.10;19.83;;;;;;;6.13;99.22;99579.00;8378570;28;20491;-72
2022/11/05 18:39:11;;;;;;;46.58;18.70;;;;;;;6.08;99.57;99578.97;8420167;28;20042;-73
2022/11/05 18:43:13;;;;;;;37.97;16.67;;;;;;;6.05;99.59;99594.81;8410595;28;20051;-72
2022/11/05 18:47:19;;;;;;;43.65;16.00;;;;;;;5.96;99.68;99597.22;8375780;28;20525;-73
2022/11/05 18:51:20;;;;;;;37.70;15.73;;;;;;;5.89;99.67;99591.28;8409788;28;20056;-72
2022/11/05 18:55:24;;;;;;;42.50;15.02;;;;;;;5.83;99.80;99586.97;8376091;28;20039;-72
2022/11/05 18:59:26;;;;;;;29.15;12.35;;;;;;;5.78;99.85;99597.69;8406426;28;20053;-72
2022/11/05 19:03:28;;;;;;;27.15;12.18;;;;;;;5.72;99.80;99606.78;8378076;28;20055;-72
2022/11/05 19:07:36;;;;;;;30.05;11.27;;;;;;;5.64;99.81;99610.78;8428924;28;20189;-72
2022/11/05 19:11:39;;;;;;;23.90;10.38;;;;;;;5.57;99.71;99614.78;8425392;28;20051;-72
2022/11/05 19:15:43;;;;;;;27.10;12.23;;;;;;;5.50;99.84;99621.19;8429085;28;20083;-72
2022/11/05 19:19:44;;;;;;;24.42;11.43;;;;;;;5.45;99.85;99618.47;8411057;28;20458;-73
2022/11/05 19:23:50;;;;;;;28.13;11.73;;;;;;;5.39;99.82;99630.25;8425182;28;20036;-72
2022/11/05 19:27:52;;;;;;;28.15;10.95;;;;;;;5.33;99.42;99636.66;8424915;28;20052;-72
2022/11/05 19:31:56;;;;;;;25.48;10.57;;;;;;;5.27;99.71;99637.72;8425423;28;20394;-72
2022/11/05 19:35:58;;;;;;;30.23;11.30;;;;;;;5.25;99.59;99645.19;8423653;28;20044;-73
2022/11/05 19:39:59;;;;;;;31.80;10.70;;;;;;;5.21;99.73;99649.47;8429442;28;20148;-73
2022/11/05 19:44:01;;;;;;;26.50;10.48;;;;;;;5.19;99.69;99656.94;8430729;28;20044;-72
2022/11/05 19:48:05;;;;;;;23.88;9.38;;;;;;;5.16;99.45;99662.81;8394439;28;20394;-72
2022/11/05 19:52:06;;;;;;;22.17;9.43;;;;;;;5.12;99.56;99661.72;8437454;28;20052;-72
2022/11/05 19:56:10;;;;;;;28.27;11.30;;;;;;;5.06;99.52;99660.09;8430847;28;20097;-72